createdAt,value
2023-01-12T00:00:01.145Z,31.17
2023-01-12T00:02:31.221Z,30.03
2023-01-12T00:05:01.113Z,31.67
2023-01-12T00:07:33.607Z,30.13
2023-01-12T00:10:02.794Z,30.23
2023-01-12T00:12:32.019Z,29.50
2023-01-12T00:15:01.651Z,28.13
2023-01-12T00:17:30.898Z,28.90
2023-01-12T00:20:00.323Z,28.90
2023-01-12T00:22:30.921Z,30.33
2023-01-12T00:25:00.046Z,31.33
2023-01-12T00:27:29.242Z,27.93
2023-01-12T00:29:59.024Z,26.37
2023-01-12T00:32:28.641Z,28.30
2023-01-12T00:34:57.828Z,27.80
2023-01-12T00:37:28.315Z,26.43
2023-01-12T00:40:02.436Z,28.10
2023-01-12T00:42:50.229Z,28.87
2023-01-12T00:45:25.622Z,28.67
2023-01-12T00:47:55.069Z,26.83
2023-01-12T00:50:24.564Z,26.90
2023-01-12T00:52:53.822Z,26.53
2023-01-12T00:55:24.762Z,28.83
2023-01-12T00:57:54.193Z,26.20
2023-01-12T01:00:23.631Z,27.13
2023-01-12T01:02:53.166Z,27.07
2023-01-12T01:05:22.498Z,28.27
2023-01-12T01:07:51.882Z,26.77
2023-01-12T01:10:21.332Z,27.67
2023-01-12T01:12:52.225Z,27.13
2023-01-12T01:15:21.423Z,26.93
2023-01-12T01:17:50.683Z,24.93
2023-01-12T01:20:20.082Z,22.43
2023-01-12T01:22:49.209Z,27.57
2023-01-12T01:25:18.889Z,25.00
2023-01-12T01:27:47.954Z,25.50
2023-01-12T01:30:18.862Z,25.67
2023-01-12T01:32:48.153Z,26.13
2023-01-12T01:35:17.585Z,26.03
2023-01-12T01:37:46.918Z,25.93
2023-01-12T01:40:16.130Z,26.73
2023-01-12T01:42:45.298Z,32.37
2023-01-12T01:45:17.008Z,24.93
2023-01-12T01:47:50.852Z,25.47
2023-01-12T01:50:22.055Z,23.73
2023-01-12T01:52:54.906Z,24.60
2023-01-12T01:55:26.598Z,26.10
2023-01-12T01:57:59.013Z,25.43
2023-01-12T02:00:28.394Z,27.53
2023-01-12T02:03:01.321Z,29.57
2023-01-12T02:05:31.475Z,24.10
2023-01-12T02:08:06.998Z,28.53
2023-01-12T02:10:36.497Z,29.70
2023-01-12T02:13:22.932Z,24.70
2023-01-12T02:16:21.535Z,28.57
2023-01-12T02:19:21.583Z,25.83
2023-01-12T02:22:22.353Z,28.10
2023-01-12T02:25:11.403Z,26.13
2023-01-12T02:28:18.305Z,26.60
2023-01-12T02:31:08.900Z,25.03
2023-01-12T02:33:48.455Z,25.53
2023-01-12T02:36:26.328Z,25.33
2023-01-12T02:39:03.709Z,27.67
2023-01-12T02:41:55.036Z,27.70
2023-01-12T02:44:31.663Z,24.17
2023-01-12T02:47:06.502Z,26.67
2023-01-12T02:49:43.003Z,27.30
2023-01-12T02:52:15.933Z,24.63
2023-01-12T02:54:49.835Z,27.27
2023-01-12T02:57:21.223Z,25.37
2023-01-12T02:59:52.043Z,26.97
2023-01-12T03:02:25.559Z,26.43
2023-01-12T03:04:55.461Z,23.73
2023-01-12T03:07:40.483Z,24.57
2023-01-12T03:10:38.629Z,22.43
2023-01-12T03:13:12.363Z,25.43
2023-01-12T03:15:47.092Z,28.47
2023-01-12T03:18:21.778Z,24.43
2023-01-12T03:20:55.079Z,25.97
2023-01-12T03:23:30.959Z,23.70
2023-01-12T03:26:02.405Z,24.13
2023-01-12T03:28:37.397Z,24.80
2023-01-12T03:31:11.350Z,27.13
2023-01-12T03:33:44.149Z,23.30
2023-01-12T03:36:21.775Z,21.80
2023-01-12T03:39:03.927Z,24.33
2023-01-12T03:41:41.818Z,24.90
2023-01-12T03:44:18.937Z,22.50
2023-01-12T03:46:55.935Z,24.77
2023-01-12T03:49:33.425Z,23.33
2023-01-12T03:52:04.682Z,25.43
2023-01-12T03:54:36.574Z,24.73
2023-01-12T03:57:06.144Z,24.10
2023-01-12T03:59:36.313Z,23.03
2023-01-12T04:02:05.660Z,23.90
2023-01-12T04:04:36.266Z,23.70
2023-01-12T04:07:05.765Z,20.60
2023-01-12T04:09:34.910Z,21.57
2023-01-12T04:12:12.882Z,22.23
2023-01-12T04:14:46.869Z,21.20
2023-01-12T04:17:17.643Z,25.47
2023-01-12T04:19:49.024Z,24.27
2023-01-12T04:22:35.589Z,23.27
2023-01-12T04:25:07.144Z,22.70
2023-01-12T04:27:37.853Z,24.73
2023-01-12T04:30:07.966Z,22.30
2023-01-12T04:32:37.196Z,22.63
2023-01-12T04:35:08.736Z,21.80
2023-01-12T04:37:37.919Z,22.63
2023-01-12T04:40:08.407Z,19.77
2023-01-12T04:42:54.819Z,18.60
2023-01-12T04:45:23.961Z,19.80
2023-01-12T04:47:52.993Z,19.03
2023-01-12T04:50:23.583Z,20.97
2023-01-12T04:52:52.733Z,21.40
2023-01-12T04:55:22.090Z,18.33
2023-01-12T04:57:51.241Z,18.33
2023-01-12T05:00:21.409Z,20.47
2023-01-12T05:02:50.486Z,17.50
2023-01-12T05:05:19.557Z,17.73
2023-01-12T05:08:04.160Z,18.93
2023-01-12T05:10:33.285Z,17.53
2023-01-12T05:13:02.468Z,20.07
2023-01-12T05:15:31.619Z,17.80
2023-01-12T05:18:00.947Z,17.83
2023-01-12T05:20:30.018Z,16.40
2023-01-12T05:23:00.523Z,16.97
2023-01-12T05:25:29.707Z,17.23
2023-01-12T05:27:59.107Z,17.07
2023-01-12T05:30:31.449Z,19.47
2023-01-12T05:33:00.893Z,16.40
2023-01-12T05:35:29.969Z,17.33
2023-01-12T05:38:00.694Z,16.93
2023-01-12T05:40:29.843Z,17.93
2023-01-12T05:43:16.374Z,16.07
2023-01-12T05:45:45.485Z,17.37
2023-01-12T05:48:14.609Z,17.23
2023-01-12T05:50:43.834Z,16.30
2023-01-12T05:53:14.383Z,15.77
2023-01-12T05:55:43.531Z,14.50
2023-01-12T05:58:12.653Z,17.03
2023-01-12T06:00:41.707Z,19.37
2023-01-12T06:03:10.841Z,15.73
2023-01-12T06:05:39.947Z,15.53
2023-01-12T06:08:09.212Z,16.13
2023-01-12T06:10:40.966Z,16.87
2023-01-12T06:13:28.346Z,18.57
2023-01-12T06:16:05.374Z,17.07
2023-01-12T06:18:36.749Z,17.70
2023-01-12T06:21:07.144Z,18.77
2023-01-12T06:23:36.949Z,17.97
2023-01-12T06:26:10.694Z,16.17
2023-01-12T06:28:42.879Z,16.30
2023-01-12T06:31:13.617Z,18.07
2023-01-12T06:33:44.063Z,18.60
2023-01-12T06:36:13.920Z,18.87
2023-01-12T06:38:43.833Z,19.20
2023-01-12T06:41:29.013Z,22.83
2023-01-12T06:43:58.266Z,24.20
2023-01-12T06:46:27.864Z,16.97
2023-01-12T06:48:58.458Z,18.50
2023-01-12T06:51:28.267Z,18.87
2023-01-12T06:53:57.443Z,18.60
2023-01-12T06:56:28.031Z,18.53
2023-01-12T06:58:57.208Z,20.53
2023-01-12T07:01:27.560Z,21.90
2023-01-12T07:03:56.782Z,21.77
2023-01-12T07:06:26.006Z,19.93
2023-01-12T07:08:55.248Z,20.17
2023-01-12T07:11:24.446Z,24.47
2023-01-12T07:13:56.403Z,18.50
2023-01-12T07:16:25.593Z,20.87
2023-01-12T07:18:54.848Z,20.37
2023-01-12T07:21:24.145Z,20.00
2023-01-12T07:23:53.337Z,20.97
2023-01-12T07:26:22.475Z,20.77
2023-01-12T07:28:51.624Z,21.20
2023-01-12T07:31:22.812Z,23.63
2023-01-12T07:33:54.109Z,19.80
2023-01-12T07:36:25.914Z,22.67
2023-01-12T07:38:55.119Z,20.17
2023-01-12T07:41:40.696Z,23.43
2023-01-12T07:44:11.340Z,18.73
2023-01-12T07:46:42.017Z,20.00
2023-01-12T07:49:11.385Z,19.10
2023-01-12T07:51:40.949Z,22.00
2023-01-12T07:54:11.072Z,18.63
2023-01-12T07:56:40.306Z,19.37
2023-01-12T07:59:09.450Z,21.30
2023-01-12T08:01:39.686Z,19.63
2023-01-12T08:04:10.463Z,18.93
2023-01-12T08:06:39.647Z,20.43
2023-01-12T08:09:08.897Z,21.03
2023-01-12T08:11:39.463Z,18.97
2023-01-12T08:14:08.695Z,20.40
2023-01-12T08:16:42.308Z,19.10
2023-01-12T08:19:19.322Z,20.80
2023-01-12T08:21:54.437Z,23.10
2023-01-12T08:24:28.175Z,19.17
2023-01-12T08:27:01.751Z,21.17
2023-01-12T08:29:36.480Z,17.97
2023-01-12T08:34:46.147Z,22.47
2023-01-12T08:37:17.904Z,18.20
2023-01-12T08:39:48.577Z,20.93
2023-01-12T08:42:18.251Z,18.60
2023-01-12T08:44:47.697Z,20.67
2023-01-12T08:47:19.528Z,21.53
2023-01-12T08:49:50.781Z,18.17
2023-01-12T08:52:19.997Z,18.20
2023-01-12T08:54:49.212Z,20.50
2023-01-12T08:57:19.465Z,19.90
2023-01-12T08:59:48.743Z,16.70
2023-01-12T09:02:18.140Z,19.33
2023-01-12T09:04:47.352Z,20.83
2023-01-12T09:07:19.996Z,16.07
2023-01-12T09:09:49.236Z,13.87
2023-01-12T09:12:18.466Z,15.27
2023-01-12T09:14:47.823Z,17.40
2023-01-12T09:17:17.092Z,14.53
2023-01-12T09:19:50.044Z,13.70
2023-01-12T09:22:20.679Z,13.17
2023-01-12T09:24:49.747Z,14.03
2023-01-12T09:27:19.253Z,12.17
2023-01-12T09:29:48.548Z,11.77
2023-01-12T09:32:22.962Z,13.63
2023-01-12T09:34:54.954Z,14.67
2023-01-12T09:37:25.560Z,14.63
2023-01-12T09:39:54.675Z,12.63
2023-01-12T09:42:42.042Z,13.67
2023-01-12T09:45:37.112Z,13.87
2023-01-12T09:48:08.065Z,14.70
2023-01-12T09:50:40.440Z,11.70
2023-01-12T09:53:19.081Z,14.80
2023-01-12T09:55:57.989Z,10.03
2023-01-12T09:58:36.972Z,10.70
2023-01-12T10:01:20.479Z,10.83
2023-01-12T10:03:58.894Z,13.17
2023-01-12T10:06:28.159Z,16.33
2023-01-12T10:08:59.858Z,14.17
2023-01-12T10:11:36.821Z,11.60
2023-01-12T10:14:19.709Z,13.97
2023-01-12T10:16:59.988Z,12.53
2023-01-12T10:19:34.186Z,10.83
2023-01-12T10:22:11.760Z,16.50
2023-01-12T10:24:43.697Z,11.53
2023-01-12T10:27:16.670Z,11.27
2023-01-12T10:29:45.915Z,14.30
2023-01-12T10:32:15.133Z,10.83
2023-01-12T10:34:51.864Z,12.50
2023-01-12T10:37:21.338Z,14.60
2023-01-12T10:39:54.240Z,10.30
2023-01-12T10:42:42.020Z,12.47
2023-01-12T10:45:17.724Z,11.07
2023-01-12T10:47:48.211Z,12.07
2023-01-12T10:50:27.667Z,12.57
2023-01-12T10:53:01.175Z,11.07
2023-01-12T10:55:35.209Z,17.73
2023-01-12T10:58:04.462Z,11.37
2023-01-12T11:00:34.450Z,12.87
2023-01-12T11:03:03.737Z,13.53
2023-01-12T11:05:37.054Z,10.27
2023-01-12T11:08:23.779Z,10.80
2023-01-12T11:10:54.737Z,13.90
2023-01-12T11:13:27.749Z,12.33
2023-01-12T11:16:03.794Z,12.37
2023-01-12T11:18:42.471Z,13.70
2023-01-12T11:21:14.455Z,10.27
2023-01-12T11:23:54.577Z,10.93
2023-01-12T11:26:31.003Z,11.40
2023-01-12T11:29:18.786Z,9.77
2023-01-12T11:31:50.116Z,11.93
2023-01-12T11:34:23.657Z,10.77
2023-01-12T11:36:56.304Z,8.87
2023-01-12T11:39:27.569Z,9.77
2023-01-12T11:42:18.157Z,9.33
2023-01-12T11:44:55.229Z,14.87
2023-01-12T11:47:28.678Z,10.37
2023-01-12T11:50:04.232Z,10.90
2023-01-12T11:52:34.020Z,13.03
2023-01-12T11:55:03.930Z,10.57
2023-01-12T11:57:54.175Z,9.57
2023-01-12T12:00:46.469Z,10.20
2023-01-12T12:03:30.218Z,11.50
2023-01-12T12:06:06.229Z,14.33
2023-01-12T12:08:50.692Z,10.07
2023-01-12T12:11:30.804Z,10.83
2023-01-12T12:14:16.979Z,12.03
2023-01-12T12:16:54.036Z,10.57
2023-01-12T12:19:43.836Z,12.97
2023-01-12T12:22:26.659Z,8.13
2023-01-12T12:25:07.023Z,9.73
2023-01-12T12:27:47.799Z,9.63
2023-01-12T12:30:44.562Z,9.13
2023-01-12T12:33:23.381Z,10.07
2023-01-12T12:36:09.374Z,11.80
2023-01-12T12:39:07.053Z,10.07
2023-01-12T12:41:58.528Z,7.20
2023-01-12T12:45:01.449Z,10.83
2023-01-12T12:47:58.787Z,10.93
2023-01-12T12:53:55.954Z,8.90
2023-01-12T12:56:26.876Z,10.80
2023-01-12T12:58:57.279Z,10.27
2023-01-12T13:01:57.768Z,11.00
2023-01-12T13:05:06.764Z,7.67
2023-01-12T13:07:43.004Z,9.40
2023-01-12T13:10:30.955Z,12.50
2023-01-12T13:13:05.646Z,8.77
2023-01-12T13:15:38.035Z,8.40
2023-01-12T13:18:28.101Z,10.60
2023-01-12T13:20:59.947Z,9.63
2023-01-12T13:23:52.894Z,8.20
2023-01-12T13:26:39.128Z,9.90
2023-01-12T13:29:39.121Z,10.07
2023-01-12T13:32:32.993Z,9.57
2023-01-12T13:35:02.269Z,10.20
2023-01-12T13:37:40.808Z,10.97
2023-01-12T13:40:19.736Z,10.97
2023-01-12T13:43:08.718Z,8.77
2023-01-12T13:45:38.566Z,9.87
2023-01-12T13:48:08.838Z,8.67
2023-01-12T13:50:39.159Z,8.00
2023-01-12T13:53:23.097Z,7.90
2023-01-12T13:56:01.625Z,7.73
2023-01-12T13:58:38.935Z,8.60
2023-01-12T14:01:18.113Z,9.27
2023-01-12T14:04:05.634Z,7.07
2023-01-12T14:06:43.181Z,7.87
2023-01-12T14:09:22.794Z,8.80
2023-01-12T14:12:30.941Z,8.97
2023-01-12T14:15:41.107Z,6.90
2023-01-12T14:18:14.322Z,7.57
2023-01-12T14:20:46.940Z,9.33
2023-01-12T14:23:19.710Z,8.27
2023-01-12T14:26:04.210Z,8.03
2023-01-12T14:28:35.507Z,8.90
2023-01-12T14:31:07.556Z,7.23
2023-01-12T14:33:39.195Z,9.63
2023-01-12T14:36:13.665Z,9.37
2023-01-12T14:38:45.604Z,7.60
2023-01-12T14:41:34.882Z,7.23
2023-01-12T14:44:23.644Z,7.17
2023-01-12T14:46:56.160Z,8.77
2023-01-12T14:49:29.823Z,10.97
2023-01-12T14:52:00.738Z,7.37
2023-01-12T14:54:31.837Z,10.53
2023-01-12T14:57:03.421Z,8.30
2023-01-12T14:59:36.697Z,9.67
2023-01-12T15:02:37.568Z,7.70
2023-01-12T15:05:20.656Z,8.73
2023-01-12T15:07:58.920Z,10.53
2023-01-12T15:10:35.524Z,12.00
2023-01-12T15:13:26.753Z,10.43
2023-01-12T15:16:12.236Z,9.07
2023-01-12T15:18:59.377Z,8.23
2023-01-12T15:21:46.729Z,7.13
2023-01-12T15:24:41.228Z,7.63
2023-01-12T15:27:12.459Z,8.10
2023-01-12T15:29:41.831Z,8.90
2023-01-12T15:32:17.184Z,7.97
2023-01-12T15:34:46.344Z,10.47
2023-01-12T15:37:18.776Z,10.83
2023-01-12T15:39:48.692Z,10.13
2023-01-12T15:42:22.145Z,10.40
2023-01-12T15:44:54.397Z,12.53
2023-01-12T15:47:25.303Z,10.30
2023-01-12T15:49:54.836Z,8.17
2023-01-12T15:52:26.549Z,11.87
2023-01-12T15:54:56.146Z,8.40
2023-01-12T15:57:25.365Z,9.03
2023-01-12T15:59:54.645Z,9.77
2023-01-12T16:02:34.810Z,10.47
2023-01-12T16:05:04.317Z,9.57
2023-01-12T16:07:33.614Z,11.97
2023-01-12T16:10:03.093Z,9.43
2023-01-12T16:12:32.504Z,13.23
2023-01-12T16:15:01.897Z,10.47
2023-01-12T16:17:34.757Z,11.93
2023-01-12T16:20:04.338Z,13.27
2023-01-12T16:22:33.884Z,15.47
2023-01-12T16:25:03.290Z,11.80
2023-01-12T16:27:32.790Z,13.93
2023-01-12T16:30:02.159Z,11.80
2023-01-12T16:32:31.443Z,16.60
2023-01-12T16:35:02.178Z,13.03
2023-01-12T16:37:33.551Z,13.67
2023-01-12T16:40:02.989Z,16.00
2023-01-12T16:42:32.360Z,15.10
2023-01-12T16:45:01.644Z,14.70
2023-01-12T16:47:30.837Z,14.20
2023-01-12T16:50:01.708Z,15.80
2023-01-12T16:52:31.026Z,15.93
2023-01-12T16:55:00.465Z,17.40
2023-01-12T16:57:29.706Z,18.20
2023-01-12T16:59:58.957Z,15.43
2023-01-12T17:02:29.599Z,21.97
2023-01-12T17:04:59.072Z,17.90
2023-01-12T17:07:30.246Z,14.97
2023-01-12T17:10:00.848Z,17.47
2023-01-12T17:12:30.316Z,16.20
2023-01-12T17:15:00.309Z,17.43
2023-01-12T17:17:29.883Z,19.73
2023-01-12T17:19:59.845Z,18.47
2023-01-12T17:22:32.221Z,18.43
2023-01-12T17:25:01.505Z,20.03
2023-01-12T17:27:30.697Z,21.20
2023-01-12T17:29:59.957Z,15.60
2023-01-12T17:32:29.311Z,16.33
2023-01-12T17:34:58.556Z,17.40
2023-01-12T17:37:29.003Z,17.40
2023-01-12T17:40:00.004Z,19.30
2023-01-12T17:42:46.532Z,15.60
2023-01-12T17:45:15.831Z,15.50
2023-01-12T17:47:45.237Z,17.10
2023-01-12T17:50:14.828Z,16.47
2023-01-12T17:52:44.091Z,16.60
2023-01-12T17:55:16.104Z,17.07
2023-01-12T17:57:51.558Z,16.37
2023-01-12T18:00:21.607Z,19.97
2023-01-12T18:02:52.015Z,19.40
2023-01-12T18:05:21.436Z,20.63
2023-01-12T18:07:50.832Z,18.43
2023-01-12T18:10:22.304Z,18.77
2023-01-12T18:12:51.792Z,15.87
2023-01-12T18:15:21.538Z,16.27
2023-01-12T18:17:51.019Z,16.70
2023-01-12T18:20:20.474Z,15.37
2023-01-12T18:22:50.186Z,19.37
2023-01-12T18:25:21.148Z,16.70
2023-01-12T18:27:51.088Z,18.57
2023-01-12T18:30:21.009Z,15.53
2023-01-12T18:32:50.380Z,19.10
2023-01-12T18:35:20.345Z,17.60
2023-01-12T18:37:50.464Z,17.97
2023-01-12T18:40:22.062Z,16.50
2023-01-12T18:42:50.857Z,15.27
2023-01-12T18:45:21.564Z,16.20
2023-01-12T18:48:12.386Z,16.23
2023-01-12T18:51:01.315Z,15.83
2023-01-12T18:53:34.564Z,16.63
2023-01-12T18:56:07.788Z,16.23
2023-01-12T18:58:41.629Z,15.93
2023-01-12T19:01:14.095Z,14.97
2023-01-12T19:03:44.666Z,15.53
2023-01-12T19:06:41.904Z,14.57
2023-01-12T19:09:31.404Z,15.77
2023-01-12T19:12:05.515Z,14.47
2023-01-12T19:14:54.267Z,13.40
2023-01-12T19:17:30.621Z,21.10
2023-01-12T19:20:05.918Z,17.20
2023-01-12T19:23:10.933Z,14.17
2023-01-12T19:26:07.664Z,13.63
2023-01-12T19:28:40.988Z,15.60
2023-01-12T19:31:15.336Z,15.87
2023-01-12T19:33:48.026Z,14.73
2023-01-12T19:36:18.887Z,15.37
2023-01-12T19:38:53.123Z,15.97
2023-01-12T19:41:37.903Z,13.43
2023-01-12T19:44:09.833Z,12.43
2023-01-12T19:46:40.500Z,15.50
2023-01-12T19:49:11.623Z,14.87
2023-01-12T19:51:42.113Z,15.17
2023-01-12T19:54:13.194Z,12.93
2023-01-12T19:56:43.594Z,14.53
2023-01-12T19:59:18.340Z,18.70
2023-01-12T20:01:52.935Z,15.73
2023-01-12T20:04:26.457Z,14.67
2023-01-12T20:06:57.468Z,13.90
2023-01-12T20:09:29.247Z,17.13
2023-01-12T20:11:59.759Z,16.67
2023-01-12T20:14:33.409Z,14.87
2023-01-12T20:17:05.941Z,15.87
2023-01-12T20:19:36.821Z,17.63
2023-01-12T20:22:08.143Z,17.47
2023-01-12T20:24:38.856Z,17.07
2023-01-12T20:27:10.267Z,16.50
2023-01-12T20:29:42.546Z,15.33
2023-01-12T20:32:14.844Z,16.97
2023-01-12T20:34:45.290Z,13.60
2023-01-12T20:37:15.062Z,12.33
2023-01-12T20:39:45.135Z,14.90
2023-01-12T20:42:15.911Z,12.93
2023-01-12T20:44:47.663Z,13.73
2023-01-12T20:47:19.930Z,15.40
2023-01-12T20:49:50.525Z,15.90
2023-01-12T20:52:20.967Z,13.20
2023-01-12T20:54:51.263Z,14.73
2023-01-12T20:57:22.153Z,12.23
2023-01-12T20:59:55.124Z,12.57
2023-01-12T21:02:26.740Z,13.63
2023-01-12T21:04:56.436Z,12.57
2023-01-12T21:07:27.458Z,20.13
2023-01-12T21:09:57.474Z,12.17
2023-01-12T21:12:27.870Z,15.37
2023-01-12T21:14:59.101Z,12.03
2023-01-12T21:17:28.839Z,15.27
2023-01-12T21:19:58.132Z,13.93
2023-01-12T21:22:27.594Z,16.97
2023-01-12T21:24:58.796Z,13.20
2023-01-12T21:27:28.242Z,13.83
2023-01-12T21:29:59.095Z,12.63
2023-01-12T21:32:31.392Z,13.63
2023-01-12T21:35:00.647Z,14.17
2023-01-12T21:37:30.348Z,15.70
2023-01-12T21:40:00.516Z,21.13
2023-01-12T21:42:47.380Z,13.33
2023-01-12T21:45:19.015Z,16.00
2023-01-12T21:47:48.988Z,13.90
2023-01-12T21:50:18.840Z,16.70
2023-01-12T21:52:48.809Z,13.50
2023-01-12T21:55:19.731Z,11.87
2023-01-12T21:57:49.331Z,16.20
2023-01-12T22:00:21.077Z,13.10
2023-01-12T22:02:51.725Z,12.47
2023-01-12T22:05:21.765Z,13.27
2023-01-12T22:07:51.534Z,14.33
2023-01-12T22:10:22.166Z,12.70
2023-01-12T22:12:54.378Z,11.37
2023-01-12T22:15:26.482Z,11.73
2023-01-12T22:17:56.169Z,13.07
2023-01-12T22:20:25.927Z,12.70
2023-01-12T22:22:55.612Z,13.93
2023-01-12T22:25:24.863Z,12.20
2023-01-12T22:27:54.086Z,11.37
2023-01-12T22:30:25.753Z,13.17
2023-01-12T22:32:56.250Z,11.30
2023-01-12T22:35:26.849Z,10.67
2023-01-12T22:37:56.046Z,14.03
2023-01-12T22:40:25.462Z,17.20
2023-01-12T22:43:12.437Z,11.50
2023-01-12T22:45:43.393Z,11.47
2023-01-12T22:48:12.946Z,12.00
2023-01-12T22:50:42.352Z,12.53
2023-01-12T22:53:11.787Z,10.23
2023-01-12T22:55:41.942Z,11.73
2023-01-12T22:58:11.225Z,13.50
2023-01-12T23:00:40.655Z,14.63
2023-01-12T23:03:12.880Z,11.57
2023-01-12T23:05:47.971Z,11.07
2023-01-12T23:08:18.243Z,13.47
2023-01-12T23:10:47.514Z,13.03
2023-01-12T23:13:19.308Z,13.13
2023-01-12T23:15:50.513Z,12.20
2023-01-12T23:18:25.630Z,10.57
2023-01-12T23:20:55.532Z,12.13
2023-01-12T23:23:24.992Z,10.80
2023-01-12T23:25:54.385Z,14.93
2023-01-12T23:28:23.950Z,12.77
2023-01-12T23:30:53.372Z,13.63
2023-01-12T23:33:24.934Z,12.00
2023-01-12T23:35:54.236Z,13.90
2023-01-12T23:38:23.547Z,11.47
2023-01-12T23:40:52.865Z,12.70
2023-01-12T23:43:22.347Z,11.53
2023-01-12T23:45:51.769Z,12.83
2023-01-12T23:48:21.202Z,15.87
2023-01-12T23:50:52.363Z,12.03
2023-01-12T23:53:21.602Z,11.93
2023-01-12T23:55:51.024Z,10.13
2023-01-12T23:58:20.519Z,11.23
